^^
Meteo Knjazevac Station Historical Data
Daily Summary for May 29, 2021 Units:  English    Metric   Both
Daily Weekly Monthly Yearly Custom
  High: Low: Average:
Temperature: 61 °F 53.8 °F 57.5 °F
Dew Point: 59.2 °F 51.4 °F 54.1 °F
Humidity: 95% 80% 89%
Wind Speed: 10mph 0mph 4.6mph
Wind Gust: 20mph - -
Wind- - SSW
Pressure: 30.29 in 30.20 in -
Precipitation: 0.00 in    
Historical Graphs
 
 
Tabular Data for May 29, 2021
Time Temperature Dew Point Pressure Wind Wind Speed Wind Gust Humidity Rainfall Rate (Hourly) solar Conditions
00:00 61 °F 58.9 °F 30.20 in North 1 mph 3 mph 93% 0.00 in 0 W/m2
00:10 61 °F 59.2 °F 30.20 in Calm   3 mph 94% 0.00 in 0 W/m2
00:20 61 °F 59.2 °F 30.20 in Calm   2 mph 94% 0.00 in 0 W/m2
00:30 61 °F 59.2 °F 30.20 in NE 2 mph 4 mph 94% 0.00 in 0 W/m2
00:40 61 °F 59.2 °F 30.20 in NNE 2 mph 4 mph 94% 0.00 in 0 W/m2
00:50 60.8 °F 59.1 °F 30.20 in NNE 1 mph 4 mph 94% 0.00 in 0 W/m2
01:00 60.8 °F 59.1 °F 30.20 in NNE 1 mph 4 mph 94% 0.00 in 0 W/m2
01:10 60.8 °F 59.1 °F 30.20 in NNW 1 mph 3 mph 94% 0.00 in 0 W/m2
01:20 60.6 °F 58.9 °F 30.20 in NW 1 mph 3 mph 94% 0.00 in 0 W/m2
01:30 60.6 °F 58.9 °F 30.20 in Calm   2 mph 94% 0.00 in 0 W/m2
01:40 60.4 °F 59 °F 30.20 in Calm   1 mph 95% 0.00 in 0 W/m2
01:50 60.4 °F 59 °F 30.20 in Calm   1 mph 95% 0.00 in 0 W/m2
02:00 60.4 °F 59 °F 30.21 in Calm   2 mph 95% 0.00 in 0 W/m2
02:10 60.4 °F 59 °F 30.21 in NNE 1 mph 3 mph 95% 0.00 in 0 W/m2
02:20 60.3 °F 58.8 °F 30.21 in NNE 3 mph 4 mph 95% 0.00 in 0 W/m2
02:30 60.3 °F 58.5 °F 30.21 in NNE 1 mph 4 mph 94% 0.00 in 0 W/m2
02:40 60.1 °F 58.3 °F 30.21 in NNE 2 mph 5 mph 94% 0.00 in 0 W/m2
02:50 59.9 °F 58.2 °F 30.21 in Calm   4 mph 94% 0.00 in 0 W/m2
03:00 59.7 °F 58.3 °F 30.20 in NNE 1 mph 3 mph 95% 0.00 in 0 W/m2
03:10 59.7 °F 58.3 °F 30.20 in Calm   5 mph 95% 0.00 in 0 W/m2
03:20 59.5 °F 58.1 °F 30.20 in Calm   2 mph 95% 0.00 in 0 W/m2
03:30 59.5 °F 58.1 °F 30.20 in North 2 mph 6 mph 95% 0.00 in 0 W/m2
03:40 59.5 °F 57.8 °F 30.20 in North 3 mph 7 mph 94% 0.00 in 0 W/m2
03:50 59.4 °F 57.6 °F 30.20 in North 2 mph 8 mph 94% 0.00 in 0 W/m2
04:00 59.4 °F 57.3 °F 30.20 in North 5 mph 12 mph 93% 0.00 in 0 W/m2
04:10 59.1 °F 57.1 °F 30.21 in North 5 mph 10 mph 93% 0.00 in 0 W/m2
04:20 59 °F 56.4 °F 30.21 in North 5 mph 10 mph 91% 0.00 in 0 W/m2
04:30 58.9 °F 56.3 °F 30.21 in North 5 mph 10 mph 91% 0.00 in 0 W/m2
04:40 58.8 °F 55.8 °F 30.21 in North 2 mph 10 mph 90% 0.00 in 0 W/m2
04:50 58.6 °F 55.7 °F 30.21 in North 6 mph 12 mph 90% 0.00 in 0 W/m2
05:00 58.3 °F 55.4 °F 30.21 in North 6 mph 12 mph 90% 0.00 in 0 W/m2
05:10 58.1 °F 55.2 °F 30.21 in North 6 mph 11 mph 90% 0.00 in 0 W/m2
05:20 57.9 °F 54.9 °F 30.21 in North 7 mph 14 mph 90% 0.00 in 0 W/m2
05:30 57.6 °F 54.7 °F 30.22 in North 5 mph 12 mph 90% 0.00 in 0 W/m2
05:40 57.4 °F 54.5 °F 30.22 in North 7 mph 13 mph 90% 0.00 in 0 W/m2
05:50 57 °F 54.1 °F 30.22 in North 5 mph 12 mph 90% 0.00 in 0 W/m2
06:00 56.8 °F 53.9 °F 30.22 in North 5 mph 12 mph 90% 0.00 in 0 W/m2
06:10 56.7 °F 53.8 °F 30.22 in NNW 5 mph 11 mph 90% 0.00 in 0 W/m2
06:20 56.5 °F 53.6 °F 30.22 in North 5 mph 10 mph 90% 0.00 in 0 W/m2
06:30 56.3 °F 53.7 °F 30.23 in NNW 3 mph 11 mph 91% 0.00 in 0 W/m2
06:40 56.1 °F 53.5 °F 30.23 in North 1 mph 7 mph 91% 0.00 in 2 W/m2
06:50 55.8 °F 53.2 °F 30.24 in NNW 2 mph 7 mph 91% 0.00 in 3 W/m2
07:00 55.8 °F 53.2 °F 30.24 in NNW 3 mph 7 mph 91% 0.00 in 5 W/m2
07:10 55.6 °F 53 °F 30.24 in North 5 mph 9 mph 91% 0.00 in 7 W/m2
07:20 55.6 °F 53 °F 30.24 in North 5 mph 9 mph 91% 0.00 in 9 W/m2
07:30 55.4 °F 52.8 °F 30.25 in North 2 mph 12 mph 91% 0.00 in 12 W/m2
07:40 55.4 °F 52.8 °F 30.25 in North 2 mph 8 mph 91% 0.00 in 13 W/m2
07:50 55.4 °F 52.8 °F 30.25 in NNW 3 mph 7 mph 91% 0.00 in 14 W/m2
08:00 55.2 °F 52.6 °F 30.25 in NNW 3 mph 6 mph 91% 0.00 in 16 W/m2
08:10 55.2 °F 53.2 °F 30.26 in NW 3 mph 7 mph 93% 0.00 in 45 W/m2
08:20 55.2 °F 53.2 °F 30.25 in NNW 5 mph 8 mph 93% 0.00 in 101 W/m2
08:30 55.6 °F 53 °F 30.26 in NNW 2 mph 6 mph 91% 0.00 in 93 W/m2
08:40 55.8 °F 53.2 °F 30.26 in NNW 2 mph 5 mph 91% 0.00 in 89 W/m2
08:50 56 °F 53.4 °F 30.26 in North 2 mph 9 mph 91% 0.00 in 122 W/m2
09:00 56.3 °F 53.4 °F 30.26 in NNW 3 mph 7 mph 90% 0.00 in 100 W/m2
09:10 56.3 °F 53.4 °F 30.26 in North 3 mph 10 mph 90% 0.00 in 98 W/m2
09:20 56.4 °F 53.5 °F 30.26 in NNW 3 mph 8 mph 90% 0.00 in 93 W/m2
09:30 56.5 °F 53.3 °F 30.26 in NNW 5 mph 10 mph 89% 0.00 in 123 W/m2
09:40 56.8 °F 53.6 °F 30.27 in North 3 mph 8 mph 89% 0.00 in 213 W/m2
09:50 57.3 °F 53.8 °F 30.26 in North 3 mph 10 mph 88% 0.00 in 258 W/m2
10:00 57.8 °F 54.3 °F 30.27 in North 3 mph 12 mph 88% 0.00 in 321 W/m2
10:10 58.5 °F 54.3 °F 30.27 in North 5 mph 15 mph 86% 0.00 in 350 W/m2
10:20 59.2 °F 54.7 °F 30.27 in North 8 mph 15 mph 85% 0.00 in 496 W/m2
10:30 60.1 °F 55.2 °F 30.27 in North 7 mph 14 mph 84% 0.00 in 594 W/m2
10:40 60.1 °F 54.9 °F 30.27 in North 5 mph 17 mph 83% 0.00 in 217 W/m2
10:50 59.5 °F 54.4 °F 30.27 in North 7 mph 15 mph 83% 0.00 in 209 W/m2
11:00 59.3 °F 54.1 °F 30.27 in North 7 mph 14 mph 83% 0.00 in 263 W/m2
11:10 59.4 °F 54.2 °F 30.27 in North 3 mph 13 mph 83% 0.00 in 212 W/m2
11:20 59 °F 53.8 °F 30.27 in North 3 mph 14 mph 83% 0.00 in 214 W/m2
11:30 59 °F 54.2 °F 30.27 in North 3 mph 13 mph 84% 0.00 in 229 W/m2
11:40 59 °F 54.2 °F 30.27 in North 5 mph 13 mph 84% 0.00 in 297 W/m2
11:50 59.5 °F 54.7 °F 30.27 in North 5 mph 13 mph 84% 0.00 in 368 W/m2
12:00 59.9 °F 54.7 °F 30.27 in North 6 mph 13 mph 83% 0.00 in 386 W/m2
12:10 60.1 °F 54.6 °F 30.27 in North 7 mph 12 mph 82% 0.00 in 258 W/m2
12:20 59.9 °F 54.1 °F 30.27 in North 6 mph 13 mph 81% 0.00 in 322 W/m2
12:30 59.7 °F 53.9 °F 30.27 in North 7 mph 14 mph 81% 0.00 in 257 W/m2
12:40 59.4 °F 54.2 °F 30.27 in North 5 mph 15 mph 83% 0.00 in 336 W/m2
12:50 59.4 °F 54.2 °F 30.27 in North 7 mph 14 mph 83% 0.00 in 274 W/m2
13:00 59.4 °F 54.2 °F 30.27 in North 6 mph 20 mph 83% 0.00 in 269 W/m2
13:10 59.4 °F 54.2 °F 30.27 in North 8 mph 14 mph 83% 0.00 in 299 W/m2
13:20 59.4 °F 54.2 °F 30.26 in North 5 mph 14 mph 83% 0.00 in 239 W/m2
13:30 59.2 °F 54 °F 30.26 in North 7 mph 17 mph 83% 0.00 in 266 W/m2
13:40 59.4 °F 54.2 °F 30.26 in North 6 mph 16 mph 83% 0.00 in 259 W/m2
13:50 59.4 °F 54.2 °F 30.26 in North 6 mph 16 mph 83% 0.00 in 300 W/m2
14:00 59.4 °F 54.2 °F 30.26 in North 7 mph 17 mph 83% 0.00 in 319 W/m2
14:10 59.4 °F 53.9 °F 30.26 in North 6 mph 17 mph 82% 0.00 in 323 W/m2
14:20 59.5 °F 53.7 °F 30.26 in North 8 mph 17 mph 81% 0.00 in 349 W/m2
14:30 59.7 °F 53.9 °F 30.26 in North 6 mph 16 mph 81% 0.00 in 293 W/m2
14:40 59.5 °F 53.7 °F 30.26 in North 6 mph 18 mph 81% 0.00 in 470 W/m2
14:50 59.4 °F 53.6 °F 30.25 in North 7 mph 17 mph 81% 0.00 in 357 W/m2
15:00 59.4 °F 53.5 °F 30.25 in North 8 mph 14 mph 81% 0.00 in 487 W/m2
15:10 59.5 °F 53.4 °F 30.25 in North 9 mph 15 mph 80% 0.00 in 464 W/m2
15:20 59.5 °F 53.4 °F 30.25 in North 7 mph 16 mph 80% 0.00 in 422 W/m2
15:30 59.5 °F 53.4 °F 30.25 in North 8 mph 18 mph 80% 0.00 in 413 W/m2
15:40 59.4 °F 53.2 °F 30.25 in North 10 mph 20 mph 80% 0.00 in 387 W/m2
15:50 59.4 °F 53.6 °F 30.25 in North 7 mph 16 mph 81% 0.00 in 359 W/m2
16:00 59.1 °F 52.9 °F 30.25 in North 8 mph 17 mph 80% 0.00 in 154 W/m2
16:10 58.6 °F 52.8 °F 30.25 in North 7 mph 17 mph 81% 0.00 in 237 W/m2
16:20 58.5 °F 53.3 °F 30.25 in North 7 mph 17 mph 83% 0.00 in 190 W/m2
16:30 58.1 °F 53 °F 30.25 in North 8 mph 20 mph 83% 0.00 in 137 W/m2
16:40 57.7 °F 52.9 °F 30.25 in North 8 mph 16 mph 84% 0.00 in 129 W/m2
16:50 57.6 °F 52.8 °F 30.25 in North 9 mph 15 mph 84% 0.00 in 84 W/m2
17:00 57.1 °F 52.3 °F 30.25 in North 7 mph 15 mph 84% 0.00 in 68 W/m2
17:10 56.8 °F 52.4 °F 30.25 in North 7 mph 18 mph 85% 0.00 in 48 W/m2
17:20 56.6 °F 52.1 °F 30.26 in North 6 mph 15 mph 85% 0.00 in 35 W/m2
17:30 56.3 °F 51.8 °F 30.26 in North 6 mph 15 mph 85% 0.00 in 26 W/m2
17:40 55.9 °F 51.8 °F 30.26 in North 5 mph 16 mph 86% 0.00 in 25 W/m2
17:50 55.8 °F 51.6 °F 30.26 in North 7 mph 17 mph 86% 0.00 in 20 W/m2
18:00 55.5 °F 51.4 °F 30.26 in North 5 mph 14 mph 86% 0.00 in 10 W/m2
18:10 55.2 °F 51.7 °F 30.26 in North 5 mph 14 mph 88% 0.00 in 5 W/m2
18:20 55 °F 51.5 °F 30.26 in North 7 mph 14 mph 88% 0.00 in 0 W/m2
18:30 54.9 °F 51.4 °F 30.26 in North 6 mph 13 mph 88% 0.00 in 0 W/m2
18:40 54.7 °F 51.5 °F 30.26 in North 7 mph 13 mph 89% 0.00 in 0 W/m2
18:50 54.8 °F 51.6 °F 30.26 in North 6 mph 13 mph 89% 0.00 in 0 W/m2
19:00 54.9 °F 51.7 °F 30.26 in North 6 mph 13 mph 89% 0.00 in 0 W/m2
19:10 54.9 °F 51.7 °F 30.26 in North 7 mph 14 mph 89% 0.00 in 0 W/m2
19:20 54.9 °F 51.7 °F 30.27 in North 6 mph 12 mph 89% 0.00 in 0 W/m2
19:30 54.9 °F 51.7 °F 30.27 in North 6 mph 13 mph 89% 0.00 in 0 W/m2
19:40 54.9 °F 51.7 °F 30.27 in North 3 mph 12 mph 89% 0.00 in 0 W/m2
19:50 54.9 °F 51.7 °F 30.27 in North 5 mph 11 mph 89% 0.00 in 0 W/m2
20:00 54.9 °F 51.7 °F 30.27 in North 5 mph 12 mph 89% 0.00 in 0 W/m2
20:10 54.9 °F 51.7 °F 30.28 in North 5 mph 9 mph 89% 0.00 in 0 W/m2
20:20 54.9 °F 51.7 °F 30.28 in North 5 mph 11 mph 89% 0.00 in 0 W/m2
20:30 54.9 °F 51.7 °F 30.28 in North 2 mph 12 mph 89% 0.00 in 0 W/m2
20:40 54.9 °F 51.7 °F 30.28 in North 5 mph 12 mph 89% 0.00 in 0 W/m2
20:50 55 °F 51.9 °F 30.28 in North 7 mph 12 mph 89% 0.00 in 0 W/m2
21:00 55 °F 51.9 °F 30.28 in North 6 mph 13 mph 89% 0.00 in 0 W/m2
21:10 55 °F 51.9 °F 30.28 in North 7 mph 12 mph 89% 0.00 in 0 W/m2
21:20 54.9 °F 51.7 °F 30.28 in North 5 mph 9 mph 89% 0.00 in 0 W/m2
21:30 54.9 °F 51.7 °F 30.28 in North 5 mph 10 mph 89% 0.00 in 0 W/m2
21:40 54.7 °F 51.8 °F 30.28 in North 5 mph 9 mph 90% 0.00 in 0 W/m2
21:50 54.7 °F 51.8 °F 30.28 in North 7 mph 10 mph 90% 0.00 in 0 W/m2
22:00 54.5 °F 51.6 °F 30.28 in North 5 mph 13 mph 90% 0.00 in 0 W/m2
22:10 54.3 °F 51.4 °F 30.28 in North 5 mph 12 mph 90% 0.00 in 0 W/m2
22:20 54.3 °F 51.7 °F 30.28 in North 7 mph 10 mph 91% 0.00 in 0 W/m2
22:30 54.1 °F 51.6 °F 30.28 in North 5 mph 10 mph 91% 0.00 in 0 W/m2
22:40 54 °F 51.4 °F 30.28 in North 3 mph 10 mph 91% 0.00 in 0 W/m2
22:50 54 °F 51.4 °F 30.28 in North 5 mph 11 mph 91% 0.00 in 0 W/m2
23:00 53.8 °F 51.8 °F 30.28 in North 5 mph 10 mph 93% 0.00 in 0 W/m2
23:10 53.8 °F 51.8 °F 30.29 in North 5 mph 9 mph 93% 0.00 in 0 W/m2
23:20 53.8 °F 51.8 °F 30.29 in North 3 mph 9 mph 93% 0.00 in 0 W/m2
23:30 53.8 °F 51.8 °F 30.29 in North 5 mph 9 mph 93% 0.00 in 0 W/m2
23:40 53.8 °F 51.8 °F 30.29 in North 3 mph 13 mph 93% 0.00 in 0 W/m2
23:50 54 °F 52 °F 30.29 in North 5 mph 9 mph 93% 0.00 in 0 W/m2
Knjazevac, Serbia
Compliments of Weather Underground - 2 mb